createdAt,value
2022-08-17T00:01:08.188Z,100534.38
2022-08-17T00:03:51.637Z,100537.06
2022-08-17T00:06:32.311Z,100538.25
2022-08-17T00:09:11.947Z,100533.91
2022-08-17T00:12:42.638Z,100537.88
2022-08-17T00:15:22.545Z,100527.13
2022-08-17T00:18:02.804Z,100530.44
2022-08-17T00:20:42.416Z,100535.63
2022-08-17T00:23:22.513Z,100534.59
2022-08-17T00:26:00.697Z,100535.03
2022-08-17T00:28:40.137Z,100533.81
2022-08-17T00:31:22.748Z,100535.75
2022-08-17T00:34:06.128Z,100541.75
2022-08-17T00:36:46.082Z,100545.03
2022-08-17T00:39:25.824Z,100546.91
2022-08-17T00:42:13.979Z,100536.75
2022-08-17T00:44:53.422Z,100547.78
2022-08-17T00:47:35.249Z,100540.16
2022-08-17T00:50:18.806Z,100542.66
2022-08-17T00:53:00.212Z,100542.66
2022-08-17T00:55:42.631Z,100531.66
2022-08-17T00:58:36.377Z,100528.56
2022-08-17T01:01:21.686Z,100525.84
2022-08-17T01:04:05.874Z,100535.84
2022-08-17T01:06:48.195Z,100540.22
2022-08-17T01:09:28.593Z,100532.72
2022-08-17T01:12:10.275Z,100531.91
2022-08-17T01:14:49.673Z,100532.75
2022-08-17T01:17:30.575Z,100531.53
2022-08-17T01:20:11.384Z,100533.16
2022-08-17T01:22:50.876Z,100540.22
2022-08-17T01:25:31.309Z,100534.81
2022-08-17T01:28:52.526Z,100530.69
2022-08-17T01:31:36.984Z,100538.78
2022-08-17T01:34:18.942Z,100533.00
2022-08-17T01:36:59.606Z,100540.84
2022-08-17T01:40:06.283Z,100543.78
2022-08-17T01:42:47.680Z,100532.19
2022-08-17T01:45:33.661Z,100544.63
2022-08-17T01:48:14.396Z,100538.41
2022-08-17T01:51:14.724Z,100531.59
2022-08-17T01:53:58.021Z,100531.59
2022-08-17T01:56:40.020Z,100533.25
2022-08-17T01:59:22.247Z,100532.63
2022-08-17T02:02:01.736Z,100530.16
2022-08-17T02:04:41.479Z,100532.22
2022-08-17T02:07:21.386Z,100534.91
2022-08-17T02:10:16.706Z,100533.69
2022-08-17T02:13:00.195Z,100521.66
2022-08-17T02:15:41.875Z,100521.66
2022-08-17T02:18:21.335Z,100522.72
2022-08-17T02:21:03.735Z,100527.88
2022-08-17T02:23:46.408Z,100515.47
2022-08-17T02:26:27.083Z,100524.78
2022-08-17T02:29:08.919Z,100528.72
2022-08-17T02:32:02.802Z,100522.34
2022-08-17T02:34:45.191Z,100526.69
2022-08-17T02:37:25.456Z,100529.78
2022-08-17T02:40:07.577Z,100530.84
2022-08-17T02:42:47.411Z,100527.72
2022-08-17T02:45:27.794Z,100520.66
2022-08-17T02:48:07.222Z,100525.47
2022-08-17T02:50:47.230Z,100530.44
2022-08-17T02:53:26.606Z,100525.47
2022-08-17T02:56:06.916Z,100526.31
2022-08-17T02:58:48.222Z,100532.47
2022-08-17T03:01:28.329Z,100530.19
2022-08-17T03:04:09.016Z,100525.03
2022-08-17T03:06:48.900Z,100529.59
2022-08-17T03:09:28.677Z,100524.41
2022-08-17T03:12:13.123Z,100524.41
2022-08-17T03:14:55.063Z,100534.78
2022-08-17T03:17:34.453Z,100525.44
2022-08-17T03:20:16.062Z,100525.84
2022-08-17T03:23:16.477Z,100531.66
2022-08-17T03:25:58.629Z,100527.53
2022-08-17T03:28:40.519Z,100522.16
2022-08-17T03:31:40.212Z,100524.22
2022-08-17T03:34:19.787Z,100519.25
2022-08-17T03:36:59.546Z,100527.72
2022-08-17T03:39:41.346Z,100525.66
2022-08-17T03:42:32.564Z,100523.56
2022-08-17T03:45:17.698Z,100515.50
2022-08-17T03:48:15.596Z,100526.44
2022-08-17T03:51:15.133Z,100528.72
2022-08-17T03:54:14.305Z,100526.25
2022-08-17T03:57:01.892Z,100528.50
2022-08-17T03:59:44.943Z,100528.28
2022-08-17T04:02:28.335Z,100530.97
2022-08-17T04:05:10.903Z,100529.09
2022-08-17T04:07:51.733Z,100526.22
2022-08-17T04:10:33.256Z,100526.22
2022-08-17T04:13:16.693Z,100518.34
2022-08-17T04:16:06.012Z,100521.25
2022-08-17T04:18:45.429Z,100512.97
2022-08-17T04:21:25.550Z,100518.34
2022-08-17T04:24:06.480Z,100514.00
2022-08-17T04:26:54.204Z,100529.69
2022-08-17T04:29:49.977Z,100518.97
2022-08-17T04:35:30.202Z,100521.84
2022-08-17T04:38:16.016Z,100526.59
2022-08-17T04:41:57.842Z,100529.88
2022-08-17T04:44:39.497Z,100529.84
2022-08-17T04:47:18.936Z,100526.75
2022-08-17T04:50:01.596Z,100526.78
2022-08-17T04:52:47.269Z,100533.41
2022-08-17T04:55:30.050Z,100532.19
2022-08-17T04:58:10.345Z,100539.84
2022-08-17T05:00:50.857Z,100543.78
2022-08-17T05:03:32.633Z,100546.88
2022-08-17T05:06:14.007Z,100546.47
2022-08-17T05:08:54.140Z,100551.22
2022-08-17T05:11:37.080Z,100554.34
2022-08-17T05:14:17.828Z,100552.72
2022-08-17T05:16:59.592Z,100555.19
2022-08-17T05:19:41.104Z,100558.50
2022-08-17T05:22:20.414Z,100561.00
2022-08-17T05:25:00.212Z,100564.13
2022-08-17T05:27:45.266Z,100564.75
2022-08-17T05:30:27.325Z,100568.69
2022-08-17T05:33:09.730Z,100569.72
2022-08-17T05:35:51.708Z,100565.19
2022-08-17T05:38:34.373Z,100569.75
2022-08-17T05:41:17.090Z,100563.72
2022-08-17T05:43:56.792Z,100565.41
2022-08-17T05:46:57.287Z,100570.16
2022-08-17T05:49:49.478Z,100570.00
2022-08-17T05:52:36.779Z,100572.66
2022-08-17T05:55:21.872Z,100572.44
2022-08-17T05:58:11.471Z,100577.22
2022-08-17T06:00:59.141Z,100576.97
2022-08-17T06:03:48.895Z,100578.00
2022-08-17T06:06:39.772Z,100578.34
2022-08-17T06:09:33.816Z,100583.28
2022-08-17T06:12:26.253Z,100580.34
2022-08-17T06:15:19.414Z,100579.88
2022-08-17T06:18:01.287Z,100575.53
2022-08-17T06:20:57.211Z,100571.31
2022-08-17T06:23:40.341Z,100574.53
2022-08-17T06:26:25.815Z,100584.22
2022-08-17T06:29:22.299Z,100577.09
2022-08-17T06:32:03.359Z,100579.88
2022-08-17T06:34:44.586Z,100583.09
2022-08-17T06:37:42.929Z,100578.00
2022-08-17T06:40:46.237Z,100579.09
2022-08-17T06:43:35.037Z,100580.16
2022-08-17T06:46:20.450Z,100578.56
2022-08-17T06:49:10.355Z,100576.19
2022-08-17T06:51:53.582Z,100576.75
2022-08-17T06:54:37.077Z,100573.66
2022-08-17T06:57:20.170Z,100576.53
2022-08-17T07:00:16.703Z,100572.00
2022-08-17T07:03:00.353Z,100575.38
2022-08-17T07:05:43.963Z,100574.97
2022-08-17T07:08:43.426Z,100572.97
2022-08-17T07:11:28.284Z,100584.06
2022-08-17T07:14:18.310Z,100579.00
2022-08-17T07:16:59.342Z,100574.88
2022-08-17T07:19:41.284Z,100577.50
2022-08-17T07:22:24.317Z,100587.16
2022-08-17T07:25:07.498Z,100573.19
2022-08-17T07:28:29.769Z,100578.38
2022-08-17T07:31:22.488Z,100584.72
2022-08-17T07:34:08.116Z,100587.63
2022-08-17T07:36:47.749Z,100584.06
2022-08-17T07:39:28.537Z,100589.06
2022-08-17T07:42:11.203Z,100589.44
2022-08-17T07:45:24.809Z,100586.31
2022-08-17T07:48:20.549Z,100597.56
2022-08-17T07:51:00.161Z,100599.47
2022-08-17T07:53:41.631Z,100597.13
2022-08-17T07:56:44.986Z,100606.16
2022-08-17T07:59:27.235Z,100614.56
2022-08-17T08:02:29.521Z,100602.72
2022-08-17T08:05:48.772Z,100610.13
2022-08-17T08:08:34.639Z,100608.16
2022-08-17T08:11:16.469Z,100613.81
2022-08-17T08:13:57.227Z,100603.56
2022-08-17T08:16:37.590Z,100616.09
2022-08-17T08:19:21.008Z,100611.97
2022-08-17T08:22:07.583Z,100608.63
2022-08-17T08:24:56.779Z,100618.72
2022-08-17T08:27:45.660Z,100622.94
2022-08-17T08:30:25.490Z,100632.84
2022-08-17T08:33:17.119Z,100627.34
2022-08-17T08:36:00.002Z,100622.03
2022-08-17T08:38:45.701Z,100632.13
2022-08-17T08:41:33.685Z,100633.22
2022-08-17T08:45:00.719Z,100619.75
2022-08-17T08:48:05.917Z,100626.06
2022-08-17T08:51:01.255Z,100630.72
2022-08-17T08:53:44.994Z,100629.41
2022-08-17T08:56:32.624Z,100627.53
2022-08-17T08:59:22.113Z,100635.19
2022-08-17T09:02:09.562Z,100640.13
2022-08-17T09:05:18.041Z,100643.94
2022-08-17T09:08:02.906Z,100645.78
2022-08-17T09:10:52.074Z,100644.91
2022-08-17T09:13:40.228Z,100649.25
2022-08-17T09:16:29.429Z,100645.88
2022-08-17T09:19:14.357Z,100656.22
2022-08-17T09:21:59.859Z,100652.66
2022-08-17T09:24:43.555Z,100642.13
2022-08-17T09:27:25.896Z,100645.59
2022-08-17T09:30:10.758Z,100648.91
2022-08-17T09:32:55.713Z,100637.38
2022-08-17T09:35:41.469Z,100644.81
2022-08-17T09:38:25.587Z,100640.38
2022-08-17T09:41:12.405Z,100634.00
2022-08-17T09:43:55.539Z,100642.97
2022-08-17T09:46:38.889Z,100635.28
2022-08-17T09:49:29.127Z,100637.38
2022-08-17T09:52:23.114Z,100633.16
2022-08-17T09:55:03.698Z,100637.13
2022-08-17T09:57:55.823Z,100640.94
2022-08-17T10:00:42.354Z,100639.81
2022-08-17T10:03:29.126Z,100638.50
2022-08-17T10:06:21.937Z,100632.63
2022-08-17T10:09:08.724Z,100632.09
2022-08-17T10:12:17.052Z,100628.34
2022-08-17T10:15:08.189Z,100623.97
2022-08-17T10:18:08.057Z,100616.09
2022-08-17T10:21:13.651Z,100614.91
2022-08-17T10:24:16.682Z,100615.88
2022-08-17T10:26:59.152Z,100610.38
2022-08-17T10:29:47.329Z,100610.31
2022-08-17T10:32:33.925Z,100607.06
2022-08-17T10:35:30.129Z,100608.19
2022-08-17T10:38:40.178Z,100608.66
2022-08-17T10:41:27.296Z,100594.63
2022-08-17T10:44:39.517Z,100601.56
2022-08-17T10:47:14.368Z,100602.59
2022-08-17T10:49:55.929Z,100614.41
2022-08-17T10:52:50.143Z,100599.38
2022-08-17T10:55:30.264Z,100599.91
2022-08-17T10:58:22.113Z,100595.69
2022-08-17T11:01:04.398Z,100599.09
2022-08-17T11:03:54.080Z,100599.94
2022-08-17T11:06:42.503Z,100601.09
2022-08-17T11:09:50.201Z,100594.31
2022-08-17T11:12:37.910Z,100600.78
2022-08-17T11:15:37.184Z,100590.84
2022-08-17T11:18:31.869Z,100597.97
2022-08-17T11:21:32.067Z,100591.50
2022-08-17T11:24:18.315Z,100590.72
2022-08-17T11:27:09.109Z,100599.28
2022-08-17T11:29:58.107Z,100591.53
2022-08-17T11:32:48.004Z,100586.81
2022-08-17T11:35:39.944Z,100595.44
2022-08-17T11:38:25.261Z,100588.22
2022-08-17T11:41:22.232Z,100583.50
2022-08-17T11:44:11.417Z,100593.56
2022-08-17T11:47:23.411Z,100588.66
2022-08-17T11:50:44.389Z,100587.31
2022-08-17T11:54:28.921Z,100589.03
2022-08-17T11:57:42.556Z,100586.78
2022-08-17T12:00:49.148Z,100584.97
2022-08-17T12:06:45.236Z,100589.31
2022-08-17T12:09:32.386Z,100583.56
2022-08-17T12:12:15.317Z,100585.69
2022-08-17T12:15:12.917Z,100586.66
2022-08-17T12:17:56.521Z,100587.63
2022-08-17T12:20:38.607Z,100585.28
2022-08-17T12:23:23.392Z,100580.56
2022-08-17T12:26:09.337Z,100578.97
2022-08-17T12:28:57.187Z,100569.53
2022-08-17T12:31:44.154Z,100578.75
2022-08-17T12:34:27.429Z,100566.28
2022-08-17T12:37:20.696Z,100571.13
2022-08-17T12:40:04.166Z,100564.13
2022-08-17T12:42:55.517Z,100567.09
2022-08-17T12:45:40.057Z,100568.59
2022-08-17T12:48:25.634Z,100569.66
2022-08-17T12:51:07.712Z,100563.44
2022-08-17T12:54:24.040Z,100558.34
2022-08-17T12:57:14.084Z,100561.94
2022-08-17T12:59:58.495Z,100552.72
2022-08-17T13:02:45.671Z,100547.28
2022-08-17T13:05:29.097Z,100548.94
2022-08-17T13:08:16.736Z,100531.03
2022-08-17T13:11:00.931Z,100538.16
2022-08-17T13:13:44.284Z,100538.63
2022-08-17T13:16:28.591Z,100535.78
2022-08-17T13:19:40.296Z,100545.72
2022-08-17T13:22:26.022Z,100537.78
2022-08-17T13:25:09.340Z,100543.28
2022-08-17T13:27:51.810Z,100531.38
2022-08-17T13:30:33.752Z,100535.34
2022-08-17T13:33:43.251Z,100536.81
2022-08-17T13:36:33.377Z,100531.84
2022-08-17T13:39:16.823Z,100534.47
2022-08-17T13:42:34.146Z,100531.78
2022-08-17T13:45:38.955Z,100527.09
2022-08-17T13:48:26.167Z,100521.50
2022-08-17T13:51:29.113Z,100513.97
2022-08-17T13:54:24.751Z,100509.50
2022-08-17T13:57:06.769Z,100507.53
2022-08-17T13:59:54.318Z,100509.22
2022-08-17T14:02:34.675Z,100507.09
2022-08-17T14:05:14.540Z,100505.38
2022-08-17T14:07:58.549Z,100501.31
2022-08-17T14:10:39.013Z,100501.03
2022-08-17T14:13:18.772Z,100503.63
2022-08-17T14:15:58.550Z,100502.88
2022-08-17T14:18:56.386Z,100499.38
2022-08-17T14:21:40.433Z,100499.88
2022-08-17T14:24:25.272Z,100505.16
2022-08-17T14:27:06.811Z,100502.28
2022-08-17T14:29:46.400Z,100506.09
2022-08-17T14:32:30.413Z,100502.41
2022-08-17T14:35:14.590Z,100504.09
2022-08-17T14:37:56.495Z,100503.41
2022-08-17T14:40:39.051Z,100515.38
2022-08-17T14:43:18.617Z,100521.84
2022-08-17T14:45:59.960Z,100512.19
2022-08-17T14:48:40.551Z,100523.19
2022-08-17T14:51:21.760Z,100521.16
2022-08-17T14:54:02.273Z,100522.91
2022-08-17T14:56:42.072Z,100531.25
2022-08-17T14:59:25.024Z,100519.53
2022-08-17T15:02:07.528Z,100517.38
2022-08-17T15:04:48.119Z,100498.78
2022-08-17T15:07:30.590Z,100471.19
2022-08-17T15:10:11.774Z,100491.91
2022-08-17T15:12:50.906Z,100529.50
2022-08-17T15:15:30.843Z,100570.66
2022-08-17T15:18:10.141Z,100586.31
2022-08-17T15:20:50.438Z,100604.97
2022-08-17T15:23:29.775Z,100622.06
2022-08-17T15:26:26.290Z,100603.44
2022-08-17T15:29:05.948Z,100570.06
2022-08-17T15:31:45.864Z,100564.19
2022-08-17T15:34:25.581Z,100538.31
2022-08-17T15:37:05.577Z,100521.84
2022-08-17T15:39:45.622Z,100509.59
2022-08-17T15:42:25.278Z,100501.38
2022-08-17T15:45:08.964Z,100509.06
2022-08-17T15:47:49.579Z,100484.25
2022-08-17T15:51:12.772Z,100475.31
2022-08-17T15:53:56.548Z,100458.16
2022-08-17T15:56:40.105Z,100443.38
2022-08-17T15:59:22.380Z,100445.91
2022-08-17T16:03:13.892Z,100445.75
2022-08-17T16:05:04.968Z,100443.31
2022-08-17T16:07:50.826Z,100438.69
2022-08-17T16:10:34.707Z,100439.69
2022-08-17T16:13:17.277Z,100431.28
2022-08-17T16:15:58.906Z,100439.50
2022-08-17T16:18:39.429Z,100435.97
2022-08-17T16:21:26.868Z,100425.63
2022-08-17T16:24:12.800Z,100423.47
2022-08-17T16:26:55.325Z,100427.25
2022-08-17T16:29:37.878Z,100433.19
2022-08-17T16:32:31.842Z,100430.22
2022-08-17T16:35:16.929Z,100426.44
2022-08-17T16:37:57.158Z,100429.72
2022-08-17T16:40:38.772Z,100425.19
2022-08-17T16:43:20.102Z,100430.06
2022-08-17T16:46:01.604Z,100429.66
2022-08-17T16:48:46.348Z,100435.78
2022-08-17T16:51:26.455Z,100437.13
2022-08-17T16:54:07.416Z,100434.91
2022-08-17T16:56:47.571Z,100426.38
2022-08-17T16:59:30.925Z,100436.06
2022-08-17T17:02:27.157Z,100441.09
2022-08-17T17:05:19.573Z,100428.84
2022-08-17T17:08:03.645Z,100435.91
2022-08-17T17:10:46.131Z,100438.19
2022-08-17T17:13:32.200Z,100439.03
2022-08-17T17:16:20.673Z,100432.69
2022-08-17T17:19:10.424Z,100432.13
2022-08-17T17:21:52.668Z,100432.03
2022-08-17T17:24:38.442Z,100431.06
2022-08-17T17:27:29.412Z,100425.44
2022-08-17T17:30:17.873Z,100433.81
2022-08-17T17:33:02.973Z,100436.13
2022-08-17T17:36:01.818Z,100433.91
2022-08-17T17:38:46.245Z,100436.28
2022-08-17T17:41:31.850Z,100441.94
2022-08-17T17:45:05.004Z,100454.09
2022-08-17T17:47:48.792Z,100461.22
2022-08-17T17:50:36.208Z,100458.97
2022-08-17T17:53:34.860Z,100456.16
2022-08-17T17:56:35.605Z,100468.56
2022-08-17T17:59:31.215Z,100465.16
2022-08-17T18:02:38.402Z,100471.56
2022-08-17T18:05:28.935Z,100475.81
2022-08-17T18:08:18.375Z,100474.75
2022-08-17T18:11:04.715Z,100479.38
2022-08-17T18:13:54.859Z,100477.63
2022-08-17T18:16:35.058Z,100490.34
2022-08-17T18:19:20.388Z,100485.66
2022-08-17T18:22:14.020Z,100484.94
2022-08-17T18:24:57.224Z,100472.47
2022-08-17T18:27:39.086Z,100472.13
2022-08-17T18:30:28.797Z,100476.94
2022-08-17T18:33:23.314Z,100463.66
2022-08-17T18:36:27.915Z,100471.19
2022-08-17T18:39:13.358Z,100472.09
2022-08-17T18:41:56.560Z,100457.72
2022-08-17T18:44:45.176Z,100466.94
2022-08-17T18:47:26.663Z,100477.53
2022-08-17T18:53:20.863Z,100471.28
2022-08-17T18:56:24.587Z,100480.22
2022-08-17T18:59:12.680Z,100465.28
2022-08-17T19:02:15.492Z,100469.03
2022-08-17T19:05:07.911Z,100470.47
2022-08-17T19:07:48.509Z,100470.47
2022-08-17T19:10:34.492Z,100464.31
2022-08-17T19:13:33.295Z,100457.38
2022-08-17T19:16:23.475Z,100461.16
2022-08-17T19:19:13.938Z,100455.38
2022-08-17T19:22:09.385Z,100457.13
2022-08-17T19:24:56.146Z,100463.78
2022-08-17T19:28:20.427Z,100468.50
2022-08-17T19:31:07.636Z,100462.94
2022-08-17T19:33:50.006Z,100467.63
2022-08-17T19:36:36.427Z,100472.31
2022-08-17T19:39:26.517Z,100465.94
2022-08-17T19:42:31.588Z,100467.69
2022-08-17T19:45:16.947Z,100464.50
2022-08-17T19:48:03.520Z,100464.31
2022-08-17T19:50:52.559Z,100457.63
2022-08-17T19:54:03.812Z,100457.84
2022-08-17T19:56:48.443Z,100458.66
2022-08-17T19:59:41.362Z,100468.50
2022-08-17T20:02:34.785Z,100476.00
2022-08-17T20:06:08.647Z,100471.06
2022-08-17T20:09:07.247Z,100458.84
2022-08-17T20:11:50.593Z,100464.81
2022-08-17T20:14:37.537Z,100463.41
2022-08-17T20:17:18.635Z,100464.47
2022-08-17T20:20:29.836Z,100454.25
2022-08-17T20:23:13.043Z,100464.09
2022-08-17T20:25:58.045Z,100467.25
2022-08-17T20:28:39.023Z,100478.06
2022-08-17T20:31:47.145Z,100469.56
2022-08-17T20:34:37.486Z,100469.78
2022-08-17T20:37:32.810Z,100471.19
2022-08-17T20:40:36.365Z,100472.31
2022-08-17T20:43:46.417Z,100460.09
2022-08-17T20:46:33.989Z,100467.16
2022-08-17T20:49:20.575Z,100463.84
2022-08-17T20:52:03.024Z,100451.41
2022-08-17T20:54:49.460Z,100449.56
2022-08-17T20:57:49.429Z,100461.44
2022-08-17T21:00:44.634Z,100452.72
2022-08-17T21:03:52.256Z,100456.03
2022-08-17T21:06:30.802Z,100463.53
2022-08-17T21:09:29.660Z,100459.84
2022-08-17T21:12:11.800Z,100448.69
2022-08-17T21:14:59.609Z,100448.28
2022-08-17T21:17:44.715Z,100454.13
2022-08-17T21:20:32.350Z,100452.47
2022-08-17T21:23:36.400Z,100457.66
2022-08-17T21:26:30.794Z,100465.16
2022-08-17T21:29:31.806Z,100467.84
2022-08-17T21:32:23.773Z,100469.09
2022-08-17T21:35:27.188Z,100472.44
2022-08-17T21:38:06.450Z,100467.72
2022-08-17T21:40:49.933Z,100458.84
2022-08-17T21:43:34.263Z,100452.25
2022-08-17T21:46:25.130Z,100443.16
2022-08-17T21:49:17.787Z,100443.16
2022-08-17T21:52:01.783Z,100453.13
2022-08-17T21:54:44.396Z,100454.19
2022-08-17T21:57:27.364Z,100468.75
2022-08-17T22:00:15.732Z,100466.13
2022-08-17T22:02:58.415Z,100447.47
2022-08-17T22:05:41.226Z,100457.81
2022-08-17T22:08:23.718Z,100453.06
2022-08-17T22:11:03.585Z,100452.03
2022-08-17T22:13:42.211Z,100449.56
2022-08-17T22:16:27.940Z,100453.25
2022-08-17T22:19:09.572Z,100466.16
2022-08-17T22:22:05.086Z,100462.00
2022-08-17T22:24:55.495Z,100469.72
2022-08-17T22:27:56.939Z,100469.13
2022-08-17T22:30:39.097Z,100472.69
2022-08-17T22:33:40.706Z,100476.81
2022-08-17T22:36:29.159Z,100483.63
2022-08-17T22:39:42.436Z,100487.81
2022-08-17T22:42:22.088Z,100491.13
2022-08-17T22:45:02.692Z,100500.88
2022-08-17T22:47:48.562Z,100500.28
2022-08-17T22:50:32.866Z,100502.97
2022-08-17T22:53:34.965Z,100502.03
2022-08-17T22:56:36.209Z,100509.47
2022-08-17T22:59:35.082Z,100514.09
2022-08-17T23:02:24.751Z,100510.56
2022-08-17T23:05:24.270Z,100522.34
2022-08-17T23:08:06.507Z,100520.69
2022-08-17T23:10:46.538Z,100526.09
2022-08-17T23:13:27.357Z,100527.13
2022-08-17T23:16:09.217Z,100530.66
2022-08-17T23:19:00.480Z,100531.25
2022-08-17T23:21:40.380Z,100527.75
2022-08-17T23:24:23.129Z,100527.34
2022-08-17T23:27:03.497Z,100523.59
2022-08-17T23:29:47.077Z,100522.38
2022-08-17T23:32:28.240Z,100518.25
2022-08-17T23:35:10.056Z,100512.44
2022-08-17T23:37:50.094Z,100514.53
2022-08-17T23:40:31.834Z,100513.25
2022-08-17T23:43:24.723Z,100518.66
2022-08-17T23:46:25.427Z,100523.66
2022-08-17T23:49:06.569Z,100514.50
2022-08-17T23:51:47.391Z,100523.25
2022-08-17T23:54:33.701Z,100522.22
2022-08-17T23:57:15.718Z,100525.13
2022-08-17T23:59:55.386Z,100527.00
